Evergreen, Alabama
Current Conditions -  °F | °C
As of 8:53 AM on Saturday 22 Nov 2014 (Local Time) from KGZH Reporting Station
Clear Clear  
Wind Chill: 57°   Ceiling: Unl
Heat Index: 57°   Visibility: 10mi
Dew Point: 44°   Wind: 10mph
Humidity: 62%   Direction: 90°E
Pressure: 30.33"   Gusts: NA
Location:  31.43°N, 86.96°W
Report Text: KGZH 221453Z AUTO 09009KT 10SM CLR 14/07 A3033 RMK AO2 SLP271 T01390067 55000
Loading
Personal Weather Stations






























Interactive Weather Map New forecast layout! Learn more

10-Day Weather Forecast

Advertisements
Track Severe Weather on mobile